Time;durP1;ratioP1;P1;durP2;ratioP2;P2;SDS_P1;SDS_P2;PMS_P1;PMS_P2;Temp;Humidity;BMP_temperature;BMP_pressure;BME280_temperature;BME280_humidity;BME280_pressure;Samples;Min_cycle;Max_cycle;Signal;HPM_P1;HPM_P2
2023/10/18 00:01:42;;;;;;;132.10;49.27;;;7.10;72.60;;;;;;5097783;27;20219;-80
2023/10/18 00:04:13;;;;;;;153.35;56.97;;;7.10;72.50;;;;;;5118305;27;20475;-81
2023/10/18 00:06:42;;;;;;;67.65;31.13;;;7.10;72.40;;;;;;5113147;27;20214;-80
2023/10/18 00:11:54;;;;;;;21.05;12.60;;;7.00;72.50;;;;;;5090422;28;20259;-80
2023/10/18 00:14:22;;;;;;;17.27;11.68;;;7.00;72.50;;;;;;5115692;27;20208;-83
2023/10/18 00:16:50;;;;;;;17.30;13.13;;;7.00;72.40;;;;;;5111676;27;20200;-81
2023/10/18 00:19:18;;;;;;;20.83;15.57;;;7.00;72.60;;;;;;5089963;28;20489;-79
2023/10/18 00:21:46;;;;;;;17.40;13.63;;;7.00;72.70;;;;;;5112156;27;20200;-83
2023/10/18 00:24:15;;;;;;;16.60;12.80;;;7.00;72.70;;;;;;5112434;27;20205;-82
2023/10/18 00:26:43;;;;;;;20.50;14.40;;;7.00;72.60;;;;;;5113079;27;20226;-80
2023/10/18 00:29:12;;;;;;;19.52;14.82;;;7.00;72.50;;;;;;5111372;27;20331;-80
2023/10/18 00:31:40;;;;;;;20.00;13.70;;;6.90;72.50;;;;;;5095678;28;20226;-81
2023/10/18 00:34:09;;;;;;;20.25;14.15;;;6.90;72.60;;;;;;5113263;27;20207;-79
2023/10/18 00:36:40;;;;;;;25.15;18.73;;;6.90;72.60;;;;;;5112873;27;20208;-82
2023/10/18 00:39:20;;;;;;;23.52;16.83;;;6.90;72.60;;;;;;5094587;28;20723;-83
2023/10/18 00:41:52;;;;;;;17.15;11.57;;;6.90;72.50;;;;;;5092781;28;20296;-82
2023/10/18 00:44:22;;;;;;;14.18;9.45;;;6.80;72.60;;;;;;5090361;28;20194;-84
2023/10/18 00:46:52;;;;;;;16.40;11.15;;;6.80;72.70;;;;;;5094490;27;20291;-82
2023/10/18 00:49:21;;;;;;;29.17;16.58;;;6.80;72.80;;;;;;5088242;27;20322;-82
2023/10/18 00:51:51;;;;;;;27.67;16.75;;;6.80;72.80;;;;;;5095516;28;20782;-81
2023/10/18 00:54:19;;;;;;;22.45;14.13;;;6.80;72.80;;;;;;5098417;27;20839;-79
2023/10/18 00:56:47;;;;;;;14.75;9.30;;;6.80;72.80;;;;;;5097056;28;20216;-80
2023/10/18 00:59:21;;;;;;;13.50;8.50;;;6.80;72.70;;;;;;5093918;28;20295;-81
2023/10/18 01:01:57;;;;;;;14.38;8.85;;;6.80;72.70;;;;;;5096221;27;21229;-81
2023/10/18 01:04:28;;;;;;;13.95;8.50;;;6.80;72.60;;;;;;5094711;28;20218;-84
2023/10/18 01:07:05;;;;;;;14.95;8.45;;;6.80;72.60;;;;;;5111686;27;20195;-84
2023/10/18 01:09:46;;;;;;;13.18;8.52;;;6.70;72.60;;;;;;5104091;28;20238;-82
2023/10/18 01:12:15;;;;;;;15.45;9.48;;;6.70;72.60;;;;;;5105685;27;20226;-83
2023/10/18 01:14:44;;;;;;;15.60;9.80;;;6.70;72.60;;;;;;5098208;27;20203;-80
2023/10/18 01:17:16;;;;;;;15.27;10.57;;;6.70;72.60;;;;;;5111786;27;20198;-84
2023/10/18 01:19:44;;;;;;;18.55;10.70;;;6.70;72.60;;;;;;5111275;27;20203;-82
2023/10/18 01:22:12;;;;;;;18.23;10.27;;;6.70;72.60;;;;;;5118885;27;20242;-81
2023/10/18 01:24:42;;;;;;;13.50;8.82;;;6.70;72.60;;;;;;5097980;28;20207;-79
2023/10/18 01:27:12;;;;;;;12.80;8.73;;;6.70;72.60;;;;;;5113954;27;20295;-80
2023/10/18 01:29:40;;;;;;;22.08;13.82;;;6.70;72.60;;;;;;5114301;28;20278;-80
2023/10/18 01:32:08;;;;;;;17.20;11.32;;;6.60;72.40;;;;;;5094034;28;20303;-80
2023/10/18 01:34:37;;;;;;;21.52;14.10;;;6.60;72.50;;;;;;5109532;28;20198;-82
2023/10/18 01:37:13;;;;;;;25.67;15.10;;;6.50;72.60;;;;;;5105715;28;20226;-83
2023/10/18 01:39:43;;;;;;;30.60;14.82;;;6.50;72.60;;;;;;5093771;28;20294;-80
2023/10/18 01:42:13;;;;;;;24.70;14.35;;;6.40;72.60;;;;;;5110898;28;20571;-80
2023/10/18 01:44:42;;;;;;;24.75;12.35;;;6.40;72.70;;;;;;5092237;28;20341;-82
2023/10/18 01:47:12;;;;;;;19.00;10.60;;;6.40;72.80;;;;;;5092132;28;21210;-80
2023/10/18 01:49:43;;;;;;;17.90;10.50;;;6.40;72.80;;;;;;5090283;28;20269;-81
2023/10/18 01:52:17;;;;;;;19.35;12.30;;;6.40;72.80;;;;;;5097094;27;20862;-79
2023/10/18 01:54:47;;;;;;;22.75;13.63;;;6.40;73.00;;;;;;5096564;27;20197;-83
2023/10/18 01:57:15;;;;;;;19.23;12.93;;;6.40;73.00;;;;;;5110927;27;20763;-83
2023/10/18 01:59:44;;;;;;;17.25;10.63;;;6.50;73.10;;;;;;5103343;27;20275;-79
2023/10/18 02:02:12;;;;;;;12.43;8.80;;;6.50;73.10;;;;;;5099573;27;20222;-79
2023/10/18 02:04:45;;;;;;;13.18;8.30;;;6.50;73.00;;;;;;5116201;27;20705;-79
2023/10/18 02:07:21;;;;;;;14.23;8.40;;;6.50;73.00;;;;;;5120532;27;20198;-80
2023/10/18 02:09:52;;;;;;;16.20;9.25;;;6.50;72.80;;;;;;5118751;27;20202;-81
2023/10/18 02:12:22;;;;;;;15.00;9.32;;;6.40;72.80;;;;;;5122559;27;20197;-81
2023/10/18 02:14:51;;;;;;;14.63;8.93;;;6.40;72.80;;;;;;5097183;27;20271;-81
2023/10/18 02:17:19;;;;;;;12.93;8.63;;;6.40;72.80;;;;;;5101290;27;20254;-78
2023/10/18 02:19:48;;;;;;;14.18;8.73;;;6.40;72.80;;;;;;5088351;28;20707;-83
2023/10/18 02:22:18;;;;;;;16.83;8.90;;;6.40;72.90;;;;;;5087653;28;20230;-80
2023/10/18 02:24:49;;;;;;;12.95;8.88;;;6.40;72.90;;;;;;5093167;28;20679;-82
2023/10/18 02:27:19;;;;;;;17.25;9.38;;;6.30;72.90;;;;;;5093332;28;20206;-80
2023/10/18 02:29:48;;;;;;;15.80;9.23;;;6.30;73.00;;;;;;5093054;28;20248;-81
2023/10/18 02:32:23;;;;;;;14.95;8.43;;;6.40;73.00;;;;;;5091732;27;20830;-79
2023/10/18 02:34:51;;;;;;;13.63;9.32;;;6.30;73.00;;;;;;5094790;27;20202;-80
2023/10/18 02:37:20;;;;;;;36.72;16.02;;;6.30;73.00;;;;;;5120144;27;20198;-81
2023/10/18 02:39:49;;;;;;;52.88;22.67;;;6.30;72.90;;;;;;5116789;27;20207;-81
2023/10/18 02:42:33;;;;;;;24.67;12.10;;;6.20;72.80;;;;;;5114552;27;20236;-80
2023/10/18 02:45:04;;;;;;;22.55;12.27;;;6.20;72.80;;;;;;5116007;27;20281;-81
2023/10/18 02:47:33;;;;;;;18.55;10.57;;;6.10;73.00;;;;;;5090446;28;20232;-80
2023/10/18 02:50:01;;;;;;;22.90;12.15;;;6.00;73.10;;;;;;5089080;27;20668;-81
2023/10/18 02:52:32;;;;;;;33.17;16.52;;;6.00;73.20;;;;;;5114054;27;20194;-79
2023/10/18 02:55:01;;;;;;;68.28;26.48;;;6.00;73.40;;;;;;5108826;27;20241;-80
2023/10/18 02:57:31;;;;;;;87.40;33.85;;;6.00;73.50;;;;;;5110870;27;20858;-81
2023/10/18 03:00:10;;;;;;;52.08;23.10;;;6.00;73.60;;;;;;5093648;28;20215;-82
2023/10/18 03:02:39;;;;;;;41.47;18.42;;;6.10;73.60;;;;;;5087673;28;20242;-80
2023/10/18 03:05:08;;;;;;;24.60;13.00;;;6.10;73.60;;;;;;5065790;28;22015;-81
2023/10/18 03:07:41;;;;;;;46.05;20.92;;;6.10;73.70;;;;;;5070310;28;20206;-82
2023/10/18 03:10:13;;;;;;;39.03;20.77;;;6.20;73.80;;;;;;5090819;28;20195;-81
2023/10/18 03:12:44;;;;;;;37.60;18.08;;;6.20;73.80;;;;;;5091159;28;20918;-82
2023/10/18 03:15:17;;;;;;;43.92;21.15;;;6.20;73.80;;;;;;5074239;28;20203;-83
2023/10/18 03:17:48;;;;;;;59.05;27.55;;;6.30;73.80;;;;;;5090808;28;20249;-81
2023/10/18 03:20:22;;;;;;;61.72;29.95;;;6.20;73.70;;;;;;5071061;28;21925;-80
2023/10/18 03:22:52;;;;;;;52.75;23.88;;;6.20;73.70;;;;;;5072564;28;20239;-82
2023/10/18 03:25:26;;;;;;;33.83;17.50;;;6.20;73.70;;;;;;5069261;28;20615;-80
2023/10/18 03:27:58;;;;;;;21.25;12.23;;;6.20;73.80;;;;;;5099430;28;20198;-81
2023/10/18 03:30:44;;;;;;;14.30;10.02;;;6.20;73.70;;;;;;5093363;27;21040;-80
2023/10/18 03:33:13;;;;;;;14.77;9.15;;;6.20;73.60;;;;;;5103414;27;20213;-80
2023/10/18 03:35:46;;;;;;;13.18;9.60;;;6.20;73.50;;;;;;5111003;27;20216;-83
2023/10/18 03:38:24;;;;;;;13.20;9.60;;;6.20;73.50;;;;;;5093931;27;20206;-81
2023/10/18 03:40:57;;;;;;;14.73;9.35;;;6.10;73.50;;;;;;5116134;27;20230;-80
2023/10/18 03:43:31;;;;;;;13.35;9.20;;;6.10;73.50;;;;;;5088807;27;20265;-82
2023/10/18 03:46:13;;;;;;;21.00;12.10;;;6.10;73.50;;;;;;5114067;27;20202;-82
2023/10/18 03:48:46;;;;;;;19.05;10.80;;;6.10;73.50;;;;;;5094753;27;20354;-81
2023/10/18 03:51:23;;;;;;;13.57;8.98;;;6.10;73.50;;;;;;5096508;28;20229;-82
2023/10/18 03:53:55;;;;;;;17.10;10.63;;;6.10;73.60;;;;;;5093287;28;20230;-82
2023/10/18 03:56:25;;;;;;;18.83;11.45;;;6.10;73.60;;;;;;5107605;28;20199;-81
2023/10/18 03:59:00;;;;;;;20.23;12.10;;;6.10;73.50;;;;;;5095047;28;20289;-85
2023/10/18 04:01:39;;;;;;;20.63;11.40;;;6.10;73.60;;;;;;5110339;27;20222;-82
2023/10/18 04:04:08;;;;;;;23.45;13.48;;;6.10;73.60;;;;;;5099048;27;20281;-81
2023/10/18 04:06:37;;;;;;;19.50;13.13;;;6.10;73.60;;;;;;5112507;27;20190;-82
2023/10/18 04:09:13;;;;;;;21.42;11.93;;;6.10;73.60;;;;;;5097253;28;20202;-81
2023/10/18 04:11:41;;;;;;;16.50;10.75;;;6.10;73.60;;;;;;5112738;27;20195;-80
2023/10/18 04:14:16;;;;;;;17.58;10.25;;;6.10;73.60;;;;;;5113537;27;20202;-82
2023/10/18 04:16:47;;;;;;;16.10;10.40;;;6.10;73.60;;;;;;5112643;27;20274;-81
2023/10/18 04:19:19;;;;;;;14.82;9.85;;;6.10;73.50;;;;;;5093237;28;20251;-82
2023/10/18 04:21:53;;;;;;;19.42;12.50;;;6.10;73.50;;;;;;5111649;27;20249;-82
2023/10/18 04:24:22;;;;;;;18.67;11.10;;;6.00;73.50;;;;;;5109648;27;20227;-82
2023/10/18 04:26:52;;;;;;;20.70;13.18;;;6.00;73.40;;;;;;5102268;27;20231;-81
2023/10/18 04:29:27;;;;;;;16.75;11.23;;;6.00;73.50;;;;;;5126006;27;20206;-83
2023/10/18 04:31:57;;;;;;;16.58;10.50;;;6.00;73.60;;;;;;5113259;27;20283;-80
2023/10/18 04:34:29;;;;;;;15.55;9.93;;;6.00;73.60;;;;;;5108979;27;20198;-81
2023/10/18 04:36:59;;;;;;;19.75;12.27;;;6.00;73.70;;;;;;5110820;27;20187;-82
2023/10/18 04:39:29;;;;;;;20.30;14.30;;;6.00;73.60;;;;;;5095290;28;20199;-80
2023/10/18 04:41:57;;;;;;;25.92;16.02;;;6.00;73.70;;;;;;5109605;27;20972;-81
2023/10/18 04:44:25;;;;;;;25.23;13.75;;;6.00;73.70;;;;;;5120358;27;20197;-80
2023/10/18 04:46:59;;;;;;;21.15;14.50;;;6.00;73.70;;;;;;5113259;27;20282;-81
2023/10/18 04:49:38;;;;;;;46.67;23.05;;;6.00;73.60;;;;;;5098330;27;20206;-81
2023/10/18 04:52:06;;;;;;;39.47;23.55;;;6.00;73.60;;;;;;5088549;28;20264;-81
2023/10/18 04:54:38;;;;;;;35.45;21.67;;;5.90;73.50;;;;;;5107197;27;20203;-81
2023/10/18 04:57:10;;;;;;;33.00;20.50;;;5.90;73.70;;;;;;5091784;28;20224;-84
2023/10/18 04:59:52;;;;;;;33.70;20.70;;;6.00;73.80;;;;;;5092762;28;20207;-83
2023/10/18 05:02:26;;;;;;;22.17;13.15;;;6.00;73.80;;;;;;5120211;27;20687;-80
2023/10/18 05:05:10;;;;;;;20.50;12.80;;;6.00;73.70;;;;;;5090366;28;20198;-81
2023/10/18 05:07:41;;;;;;;21.48;11.88;;;6.00;73.60;;;;;;5118603;27;20321;-80
2023/10/18 05:13:01;;;;;;;22.85;14.27;;;5.90;73.90;;;;;;5102934;28;20191;-83
2023/10/18 05:15:32;;;;;;;27.02;16.10;;;5.90;73.90;;;;;;5111622;27;20883;-83
2023/10/18 05:18:05;;;;;;;27.80;17.02;;;5.90;73.90;;;;;;5107978;27;20273;-82
2023/10/18 05:23:22;;;;;;;23.30;16.05;;;5.80;73.90;;;;;;5098074;28;20231;-82
2023/10/18 05:25:56;;;;;;;20.50;11.57;;;5.80;73.90;;;;;;5101877;27;20206;-82
2023/10/18 05:28:28;;;;;;;20.05;12.85;;;5.80;73.90;;;;;;5111498;28;20747;-80
2023/10/18 05:33:48;;;;;;;20.20;12.35;;;5.80;74.10;;;;;;5066395;28;20725;-81
2023/10/18 05:36:42;;;;;;;21.50;12.80;;;5.80;73.90;;;;;;5087003;28;20279;-80
2023/10/18 05:39:27;;;;;;;17.27;10.90;;;5.80;73.90;;;;;;5090701;28;20197;-79
2023/10/18 05:42:03;;;;;;;20.27;11.32;;;5.70;73.80;;;;;;5067020;28;20206;-82
2023/10/18 05:44:32;;;;;;;22.73;14.05;;;5.70;73.80;;;;;;5087495;28;20243;-80
2023/10/18 05:47:06;;;;;;;20.13;11.40;;;5.60;73.90;;;;;;5073748;28;20205;-82
2023/10/18 05:49:41;;;;;;;18.05;11.68;;;5.50;74.00;;;;;;5073786;28;20635;-81
2023/10/18 05:52:36;;;;;;;21.90;13.73;;;5.50;74.10;;;;;;5097826;28;20751;-80
2023/10/18 05:55:08;;;;;;;21.52;14.82;;;5.60;74.30;;;;;;5069652;28;20202;-82
2023/10/18 05:57:40;;;;;;;20.27;13.95;;;5.60;74.40;;;;;;5090804;28;20202;-82
2023/10/18 06:00:17;;;;;;;15.90;10.80;;;5.70;74.40;;;;;;5096429;28;20194;-80
2023/10/18 06:02:45;;;;;;;26.77;16.50;;;5.70;74.20;;;;;;5085512;28;20645;-80
2023/10/18 06:05:14;;;;;;;25.95;17.13;;;5.70;74.10;;;;;;5085274;28;20195;-78
2023/10/18 06:07:44;;;;;;;21.70;14.70;;;5.70;74.10;;;;;;5097146;28;20263;-78
2023/10/18 06:10:16;;;;;;;24.23;17.48;;;5.70;74.20;;;;;;5094154;28;20285;-79
2023/10/18 06:12:48;;;;;;;22.75;13.73;;;5.70;74.20;;;;;;5092760;28;20348;-80
2023/10/18 06:15:38;;;;;;;19.50;12.18;;;5.60;74.00;;;;;;5093218;28;20199;-81
2023/10/18 06:21:59;;;;;;;42.05;18.48;;;5.60;74.30;;;;;;5070619;28;20288;-81
2023/10/18 06:24:29;;;;;;;46.97;24.38;;;5.70;74.40;;;;;;5074530;28;20223;-80
2023/10/18 06:26:57;;;;;;;52.67;22.63;;;5.70;74.40;;;;;;5076460;28;20230;-81
2023/10/18 06:29:25;;;;;;;175.85;52.95;;;5.70;74.40;;;;;;5068952;28;20665;-79
2023/10/18 06:31:53;;;;;;;76.43;30.20;;;5.80;74.30;;;;;;5070134;28;20238;-80
2023/10/18 06:34:22;;;;;;;72.43;30.38;;;5.80;74.30;;;;;;5070569;28;20661;-81
2023/10/18 06:36:52;;;;;;;53.30;24.25;;;5.80;74.30;;;;;;5059957;28;20201;-80
2023/10/18 06:39:27;;;;;;;42.17;19.77;;;5.80;74.30;;;;;;5061550;28;20654;-79
2023/10/18 06:41:57;;;;;;;40.58;19.75;;;5.80;74.40;;;;;;5079177;28;20206;-81
2023/10/18 06:44:27;;;;;;;27.75;15.45;;;5.80;74.30;;;;;;5072707;28;20219;-79
2023/10/18 06:46:57;;;;;;;20.42;12.38;;;5.80;74.20;;;;;;5077033;28;20239;-81
2023/10/18 06:49:26;;;;;;;20.40;13.88;;;5.80;74.30;;;;;;5074669;28;20238;-80
2023/10/18 06:51:54;;;;;;;20.55;13.05;;;5.80;74.30;;;;;;5073626;28;20719;-80
2023/10/18 06:54:30;;;;;;;30.52;17.42;;;5.80;74.50;;;;;;5053332;28;20228;-82
2023/10/18 06:57:15;;;;;;;22.85;14.13;;;5.90;74.60;;;;;;5072567;28;20211;-80
2023/10/18 06:59:48;;;;;;;19.80;13.30;;;5.80;74.50;;;;;;5089527;28;20227;-82
2023/10/18 07:02:18;;;;;;;22.83;14.25;;;5.80;74.60;;;;;;5090610;28;20214;-80
2023/10/18 07:04:50;;;;;;;35.42;18.88;;;5.80;74.80;;;;;;5078711;28;20235;-81
2023/10/18 07:07:20;;;;;;;22.58;13.40;;;5.90;74.90;;;;;;5084317;28;20191;-81
2023/10/18 07:09:52;;;;;;;194.80;83.38;;;5.90;74.80;;;;;;5093693;28;20347;-80
2023/10/18 07:12:26;;;;;;;118.70;68.15;;;5.80;74.90;;;;;;5097767;28;20222;-81
2023/10/18 07:14:57;;;;;;;73.70;45.58;;;5.90;75.10;;;;;;5094619;28;20207;-80
2023/10/18 07:17:25;;;;;;;33.80;22.30;;;5.90;75.30;;;;;;5095927;28;20252;-82
2023/10/18 07:19:56;;;;;;;30.77;19.52;;;6.00;75.40;;;;;;5092479;28;20254;-80
2023/10/18 07:22:39;;;;;;;29.17;16.90;;;6.00;75.50;;;;;;5096949;28;20199;-78
2023/10/18 07:25:09;;;;;;;33.55;17.85;;;6.10;75.70;;;;;;5078427;28;20226;-80
2023/10/18 07:27:41;;;;;;;24.73;17.40;;;6.10;75.80;;;;;;5096142;28;20277;-82
2023/10/18 07:30:14;;;;;;;25.52;16.52;;;6.20;75.90;;;;;;5093295;28;20203;-81
2023/10/18 07:32:47;;;;;;;21.25;13.63;;;6.30;75.90;;;;;;5077882;28;20741;-79
2023/10/18 07:35:27;;;;;;;23.83;15.10;;;6.30;76.10;;;;;;5091810;28;20210;-81
2023/10/18 07:37:56;;;;;;;25.15;15.98;;;6.30;76.30;;;;;;5083850;28;20826;-79
2023/10/18 07:40:33;;;;;;;25.58;17.73;;;6.40;76.30;;;;;;5094636;28;20282;-82
2023/10/18 07:43:05;;;;;;;21.85;14.55;;;6.40;76.40;;;;;;5094772;28;20244;-80
2023/10/18 07:45:35;;;;;;;26.90;15.13;;;6.40;76.60;;;;;;5090802;28;20197;-83
2023/10/18 07:48:05;;;;;;;26.70;15.65;;;6.40;76.70;;;;;;5095381;28;20309;-81
2023/10/18 07:50:41;;;;;;;18.20;12.75;;;6.50;77.00;;;;;;5094309;28;20614;-83
2023/10/18 07:53:12;;;;;;;19.20;12.68;;;6.50;77.10;;;;;;5097525;28;20653;-83
2023/10/18 07:55:42;;;;;;;19.55;13.82;;;6.50;77.20;;;;;;5095579;28;20196;-80
2023/10/18 07:58:22;;;;;;;21.42;13.82;;;6.60;77.30;;;;;;5074726;28;20205;-80
2023/10/18 08:01:12;;;;;;;20.83;12.52;;;6.60;77.30;;;;;;5076136;28;20732;-81
2023/10/18 08:03:42;;;;;;;23.95;13.70;;;6.70;77.30;;;;;;5079582;28;20223;-81
2023/10/18 08:06:16;;;;;;;19.48;12.55;;;6.80;77.30;;;;;;5072092;28;20774;-79
2023/10/18 08:08:46;;;;;;;24.23;14.00;;;6.80;77.50;;;;;;5068494;28;20225;-81
2023/10/18 08:11:15;;;;;;;23.83;13.70;;;6.90;77.50;;;;;;5067753;28;20297;-81
2023/10/18 08:13:46;;;;;;;27.27;15.52;;;6.90;77.50;;;;;;5070742;28;20193;-82
2023/10/18 08:16:27;;;;;;;22.58;13.82;;;7.00;77.50;;;;;;5078570;28;20703;-81
2023/10/18 08:18:57;;;;;;;21.15;13.55;;;7.10;77.70;;;;;;5055281;28;20569;-80
2023/10/18 08:21:36;;;;;;;24.00;14.90;;;7.10;77.70;;;;;;5072609;28;20201;-80
2023/10/18 08:24:09;;;;;;;21.50;13.90;;;7.20;77.70;;;;;;5057081;28;20597;-81
2023/10/18 08:26:47;;;;;;;21.23;12.43;;;7.20;77.80;;;;;;5074095;28;20548;-80
2023/10/18 08:29:17;;;;;;;21.48;13.48;;;7.30;77.80;;;;;;5074007;28;20966;-79
2023/10/18 08:31:55;;;;;;;20.55;13.07;;;7.30;77.80;;;;;;5073519;28;20316;-82
2023/10/18 08:34:24;;;;;;;25.20;15.33;;;7.40;77.80;;;;;;5090215;28;20210;-78
2023/10/18 08:37:01;;;;;;;20.03;12.83;;;7.50;77.80;;;;;;5094225;28;20444;-80
2023/10/18 08:39:28;;;;;;;19.70;13.13;;;7.60;77.80;;;;;;5102546;28;20458;-81
2023/10/18 08:42:05;;;;;;;21.33;13.60;;;7.60;77.90;;;;;;5090960;28;20484;-80
2023/10/18 08:44:38;;;;;;;23.23;13.17;;;7.70;77.90;;;;;;5077603;28;20529;-80
2023/10/18 08:47:12;;;;;;;19.10;12.53;;;7.80;77.80;;;;;;5072100;28;20479;-81
2023/10/18 08:49:51;;;;;;;18.77;11.20;;;7.90;77.80;;;;;;5082006;28;20856;-79
2023/10/18 08:52:23;;;;;;;18.20;11.07;;;8.00;77.60;;;;;;5099574;28;20471;-81
2023/10/18 08:54:54;;;;;;;19.43;12.47;;;8.10;77.50;;;;;;5085106;28;20454;-84
2023/10/18 08:57:34;;;;;;;19.90;12.10;;;8.10;77.40;;;;;;5086332;28;20449;-82
2023/10/18 09:00:55;;;;;;;19.97;11.23;;;8.20;77.40;;;;;;5073543;28;20825;-80
2023/10/18 09:03:00;;;;;;;19.53;11.40;;;8.30;77.40;;;;;;5072944;28;20481;-82
2023/10/18 09:05:30;;;;;;;18.37;11.00;;;8.40;77.20;;;;;;5047513;28;21001;-83
2023/10/18 09:08:03;;;;;;;19.93;14.60;;;8.50;77.10;;;;;;5068612;28;20472;-81
2023/10/18 09:10:46;;;;;;;20.10;12.40;;;8.60;77.10;;;;;;5055135;28;20456;-82
2023/10/18 09:13:33;;;;;;;23.13;12.27;;;8.70;77.00;;;;;;5054166;28;20461;-82
2023/10/18 09:16:11;;;;;;;19.43;10.77;;;8.80;76.80;;;;;;5068356;28;20884;-81
2023/10/18 09:18:39;;;;;;;18.50;11.97;;;8.90;76.70;;;;;;5058475;28;20453;-80
2023/10/18 09:21:17;;;;;;;16.40;10.83;;;8.90;76.60;;;;;;5074145;28;20544;-79
2023/10/18 09:23:47;;;;;;;18.83;11.30;;;9.00;76.40;;;;;;5056442;28;20487;-79
2023/10/18 09:26:26;;;;;;;18.40;11.87;;;9.10;76.20;;;;;;5072799;28;20959;-81
2023/10/18 09:28:59;;;;;;;20.47;11.40;;;9.10;76.10;;;;;;5074210;28;20469;-79
2023/10/18 09:31:29;;;;;;;31.90;17.43;;;9.20;75.90;;;;;;5084176;28;20543;-80
2023/10/18 09:33:58;;;;;;;31.20;16.67;;;9.20;75.90;;;;;;5096176;28;20467;-80
2023/10/18 09:36:27;;;;;;;26.50;13.83;;;9.30;75.80;;;;;;5074329;28;20528;-81
2023/10/18 09:38:59;;;;;;;24.90;12.50;;;9.30;75.80;;;;;;5070081;28;20464;-78
2023/10/18 09:41:30;;;;;;;20.10;12.03;;;9.40;75.60;;;;;;5091580;28;20529;-78
2023/10/18 09:44:01;;;;;;;19.77;13.40;;;9.40;75.60;;;;;;5089965;28;20454;-80
2023/10/18 09:46:32;;;;;;;15.07;9.20;;;9.50;75.40;;;;;;5084112;28;20446;-80
2023/10/18 09:49:04;;;;;;;14.83;9.67;;;9.60;75.20;;;;;;5095897;28;20457;-80
2023/10/18 09:51:34;;;;;;;16.23;9.03;;;9.70;75.10;;;;;;5086744;28;20475;-79
2023/10/18 09:54:07;;;;;;;15.80;9.40;;;9.70;75.00;;;;;;5072707;28;20546;-79
2023/10/18 09:56:37;;;;;;;15.30;9.50;;;9.80;74.80;;;;;;5072892;28;20467;-81
2023/10/18 09:59:08;;;;;;;13.30;8.53;;;9.90;74.60;;;;;;5094976;28;20455;-81
2023/10/18 10:01:59;;;;;;;14.80;9.53;;;10.00;74.30;;;;;;5061662;28;20818;-81
2023/10/18 10:04:32;;;;;;;16.17;8.27;;;10.00;74.10;;;;;;5050529;28;20588;-79
2023/10/18 10:09:46;;;;;;;16.60;10.93;;;10.20;73.60;;;;;;5053537;28;21084;-80
2023/10/18 10:12:19;;;;;;;16.73;9.73;;;10.20;73.40;;;;;;5059333;28;21157;-80
2023/10/18 10:14:49;;;;;;;15.90;8.87;;;10.30;73.30;;;;;;5052935;28;20549;-80
2023/10/18 10:17:21;;;;;;;17.07;7.83;;;10.30;73.30;;;;;;5053015;28;20549;-79
2023/10/18 10:20:10;;;;;;;15.83;7.80;;;10.40;73.10;;;;;;5061678;28;20454;-82
2023/10/18 10:22:41;;;;;;;13.60;7.90;;;10.40;72.80;;;;;;5064561;28;20548;-78
2023/10/18 10:25:19;;;;;;;13.27;8.20;;;10.50;72.60;;;;;;5065075;28;21055;-78
2023/10/18 10:28:14;;;;;;;13.70;7.80;;;10.50;72.50;;;;;;5065032;28;20485;-79
2023/10/18 10:30:43;;;;;;;15.10;8.93;;;10.50;72.40;;;;;;5056202;28;21226;-78
2023/10/18 10:33:13;;;;;;;15.40;9.20;;;10.60;72.20;;;;;;5070966;28;21474;-80
2023/10/18 10:35:46;;;;;;;15.90;9.17;;;10.60;72.20;;;;;;5086644;28;20456;-79
2023/10/18 10:38:18;;;;;;;15.03;8.77;;;10.70;72.10;;;;;;5085143;28;20467;-80
2023/10/18 10:40:49;;;;;;;22.20;12.67;;;10.70;72.00;;;;;;5084081;28;20457;-79
2023/10/18 10:43:19;;;;;;;15.47;9.27;;;10.80;71.90;;;;;;5068782;28;20582;-78
2023/10/18 10:45:57;;;;;;;14.70;8.57;;;10.80;71.60;;;;;;5083943;28;20483;-78
2023/10/18 10:48:36;;;;;;;16.60;9.47;;;10.90;71.50;;;;;;5087982;28;20460;-78
2023/10/18 10:51:13;;;;;;;16.03;9.33;;;10.90;71.30;;;;;;5084856;28;20534;-80
2023/10/18 10:53:44;;;;;;;12.73;7.80;;;11.00;71.30;;;;;;5088440;28;20494;-78
2023/10/18 10:56:18;;;;;;;19.53;9.77;;;11.10;71.10;;;;;;5083289;28;20518;-78
2023/10/18 10:58:54;;;;;;;12.00;7.30;;;11.20;71.00;;;;;;5080552;28;20817;-79
2023/10/18 11:01:39;;;;;;;11.93;7.30;;;11.20;70.70;;;;;;5088262;28;20476;-80
2023/10/18 11:04:19;;;;;;;14.63;8.50;;;11.30;70.60;;;;;;5095096;28;21000;-78
2023/10/18 11:06:50;;;;;;;14.87;9.10;;;11.40;70.50;;;;;;5097637;28;20483;-78
2023/10/18 11:09:18;;;;;;;13.40;9.17;;;11.50;70.20;;;;;;5098436;28;20534;-79
2023/10/18 11:11:46;;;;;;;15.13;8.23;;;11.50;70.10;;;;;;5097437;28;20960;-79
2023/10/18 11:14:18;;;;;;;13.07;9.07;;;11.60;70.00;;;;;;5095711;28;20929;-78
2023/10/18 11:16:53;;;;;;;16.07;8.80;;;11.70;69.70;;;;;;5100545;28;20844;-78
2023/10/18 11:19:28;;;;;;;14.27;7.80;;;11.70;69.60;;;;;;5073863;28;20467;-80
2023/10/18 11:21:58;;;;;;;18.23;9.07;;;11.90;69.40;;;;;;5091554;28;20450;-78
2023/10/18 11:24:28;;;;;;;14.97;8.67;;;11.90;69.30;;;;;;5098408;28;20483;-78
2023/10/18 11:26:59;;;;;;;17.83;9.80;;;12.00;69.10;;;;;;5097989;28;20999;-79
2023/10/18 11:29:27;;;;;;;22.10;10.87;;;12.10;68.90;;;;;;5091405;28;20475;-77
2023/10/18 11:31:56;;;;;;;11.27;7.23;;;12.10;68.80;;;;;;5091220;28;20460;-79
2023/10/18 11:34:26;;;;;;;12.13;6.77;;;12.20;68.40;;;;;;5098458;28;20881;-78
2023/10/18 11:37:00;;;;;;;12.33;7.50;;;12.20;68.20;;;;;;5096958;28;20445;-79
2023/10/18 11:39:32;;;;;;;10.13;6.20;;;12.30;68.10;;;;;;5095789;28;20471;-78
2023/10/18 11:42:01;;;;;;;12.13;6.47;;;12.30;67.90;;;;;;5096600;28;20485;-79
2023/10/18 11:44:30;;;;;;;12.83;7.20;;;12.30;67.80;;;;;;5092551;28;20556;-78
2023/10/18 11:47:08;;;;;;;8.70;6.13;;;12.30;67.50;;;;;;5090185;28;20558;-79
2023/10/18 11:49:40;;;;;;;11.60;6.70;;;12.30;67.40;;;;;;5090332;28;20470;-78
2023/10/18 11:52:16;;;;;;;12.23;6.83;;;12.30;67.30;;;;;;5092784;28;21001;-79
2023/10/18 11:54:47;;;;;;;13.33;7.20;;;12.40;67.00;;;;;;5093768;28;21000;-79
2023/10/18 11:57:28;;;;;;;12.27;6.40;;;12.40;67.00;;;;;;5088961;28;20445;-78
2023/10/18 12:00:19;;;;;;;10.90;6.63;;;12.40;66.90;;;;;;5088121;28;20921;-78
2023/10/18 12:02:47;;;;;;;10.70;6.00;;;12.40;66.80;;;;;;5093607;28;20483;-80
2023/10/18 12:05:17;;;;;;;11.57;6.27;;;12.40;66.80;;;;;;5094333;28;20489;-77
2023/10/18 12:07:49;;;;;;;10.17;6.30;;;12.50;66.80;;;;;;5089609;28;20448;-80
2023/10/18 12:10:25;;;;;;;10.93;6.20;;;12.60;66.70;;;;;;5094527;28;20547;-79
2023/10/18 12:12:57;;;;;;;14.13;6.90;;;12.60;66.50;;;;;;5088759;28;20457;-79
2023/10/18 12:15:30;;;;;;;12.03;7.20;;;12.70;66.50;;;;;;5095680;28;20544;-78
2023/10/18 12:18:01;;;;;;;10.57;6.87;;;12.70;66.40;;;;;;5089640;28;20958;-80
2023/10/18 12:20:35;;;;;;;12.70;6.20;;;12.80;66.20;;;;;;5084316;28;20468;-78
2023/10/18 12:23:09;;;;;;;12.27;6.70;;;12.80;65.90;;;;;;5091404;28;20563;-79
2023/10/18 12:25:42;;;;;;;15.60;7.10;;;12.90;65.90;;;;;;5076351;28;20559;-80
2023/10/18 12:28:13;;;;;;;11.07;6.07;;;13.00;65.80;;;;;;5094358;28;20464;-79
2023/10/18 12:30:43;;;;;;;11.73;6.60;;;13.00;65.70;;;;;;5090170;28;20457;-79
2023/10/18 12:33:19;;;;;;;14.13;6.50;;;13.20;65.70;;;;;;5090669;28;20457;-79
2023/10/18 12:35:49;;;;;;;17.10;11.07;;;13.20;65.40;;;;;;5082689;28;20444;-80
2023/10/18 12:38:20;;;;;;;10.33;6.40;;;13.30;65.20;;;;;;5094413;28;20506;-78
2023/10/18 12:40:58;;;;;;;13.00;7.20;;;13.30;65.20;;;;;;5075254;28;20564;-79
2023/10/18 12:43:31;;;;;;;11.00;5.87;;;13.40;65.10;;;;;;5076464;28;20460;-80
2023/10/18 12:46:00;;;;;;;14.03;6.30;;;13.40;64.70;;;;;;5092973;28;21328;-80
2023/10/18 12:48:29;;;;;;;12.60;6.97;;;13.40;64.50;;;;;;5093004;28;20440;-80
2023/10/18 12:51:06;;;;;;;12.97;7.80;;;13.50;64.50;;;;;;5093087;28;20462;-80
2023/10/18 12:53:38;;;;;;;11.17;6.47;;;13.50;64.40;;;;;;5091173;28;20480;-79
2023/10/18 12:56:31;;;;;;;13.00;7.80;;;13.60;64.30;;;;;;5067249;28;20436;-80
2023/10/18 12:59:23;;;;;;;16.80;8.10;;;13.60;64.20;;;;;;5093133;28;20459;-79
2023/10/18 13:01:58;;;;;;;17.13;7.43;;;13.70;64.00;;;;;;5093581;28;20467;-79
2023/10/18 13:04:27;;;;;;;12.73;7.53;;;13.70;64.00;;;;;;5077025;28;21006;-80
2023/10/18 13:06:55;;;;;;;10.90;6.80;;;13.80;63.90;;;;;;5083221;28;20560;-79
2023/10/18 13:09:23;;;;;;;12.10;7.33;;;13.80;63.60;;;;;;5090221;28;20946;-79
2023/10/18 13:12:00;;;;;;;11.20;6.27;;;13.80;63.60;;;;;;5089504;28;20480;-79
2023/10/18 13:14:31;;;;;;;12.70;7.00;;;13.90;63.50;;;;;;5091027;28;20444;-79
2023/10/18 13:17:03;;;;;;;11.20;6.70;;;13.90;63.40;;;;;;5094256;28;20440;-80
2023/10/18 13:19:32;;;;;;;12.50;6.93;;;13.90;63.40;;;;;;5090817;28;20453;-78
2023/10/18 13:22:12;;;;;;;11.60;6.10;;;13.90;63.30;;;;;;5090429;28;20539;-78
2023/10/18 13:24:41;;;;;;;11.70;6.50;;;14.00;63.20;;;;;;5089969;28;20543;-82